createdAt,value
2022-12-02T00:01:20.189Z,55.05
2022-12-02T00:03:50.525Z,50.38
2022-12-02T00:06:27.260Z,55.75
2022-12-02T00:08:57.920Z,45.30
2022-12-02T00:11:30.858Z,44.80
2022-12-02T00:14:02.011Z,46.08
2022-12-02T00:16:31.304Z,42.13
2022-12-02T00:19:00.661Z,51.55
2022-12-02T00:21:29.993Z,48.40
2022-12-02T00:23:59.461Z,43.22
2022-12-02T00:26:30.121Z,45.20
2022-12-02T00:28:59.490Z,43.38
2022-12-02T00:31:30.230Z,47.17
2022-12-02T00:34:00.710Z,40.63
2022-12-02T00:36:31.553Z,51.20
2022-12-02T00:39:00.891Z,48.28
2022-12-02T00:41:31.597Z,46.10
2022-12-02T00:44:18.224Z,39.50
2022-12-02T00:46:47.641Z,44.43
2022-12-02T00:49:18.204Z,48.97
2022-12-02T00:51:47.863Z,53.45
2022-12-02T00:54:17.245Z,50.88
2022-12-02T00:56:48.848Z,45.10
2022-12-02T00:59:18.239Z,50.90
2022-12-02T01:01:47.540Z,43.03
2022-12-02T01:04:16.913Z,39.65
2022-12-02T01:06:46.207Z,47.08
2022-12-02T01:09:15.477Z,47.35
2022-12-02T01:11:44.901Z,47.20
2022-12-02T01:14:15.571Z,41.28
2022-12-02T01:16:45.035Z,46.35
2022-12-02T01:19:14.606Z,46.33
2022-12-02T01:21:43.965Z,48.05
2022-12-02T01:24:13.418Z,41.50
2022-12-02T01:26:42.870Z,41.70
2022-12-02T01:29:12.342Z,41.92
2022-12-02T01:31:43.126Z,45.42
2022-12-02T01:34:12.517Z,42.50
2022-12-02T01:36:41.820Z,46.97
2022-12-02T01:39:11.196Z,54.88
2022-12-02T01:41:40.951Z,56.95
2022-12-02T01:44:11.270Z,37.10
2022-12-02T01:46:41.034Z,39.72
2022-12-02T01:49:12.081Z,37.70
2022-12-02T01:51:41.661Z,38.10
2022-12-02T01:54:11.292Z,39.65
2022-12-02T01:56:41.002Z,35.60
2022-12-02T01:59:13.197Z,36.75
2022-12-02T02:01:42.744Z,34.00
2022-12-02T02:04:14.130Z,33.30
2022-12-02T02:06:45.310Z,27.58
2022-12-02T02:09:15.729Z,29.80
2022-12-02T02:11:45.068Z,38.22
2022-12-02T02:14:14.990Z,32.10
2022-12-02T02:16:44.937Z,34.67
2022-12-02T02:19:18.391Z,36.92
2022-12-02T02:21:51.735Z,36.00
2022-12-02T02:24:24.532Z,36.97
2022-12-02T02:26:54.734Z,39.37
2022-12-02T02:29:24.988Z,38.10
2022-12-02T02:31:54.378Z,37.15
2022-12-02T02:34:23.973Z,45.63
2022-12-02T02:36:53.470Z,38.22
2022-12-02T02:39:25.420Z,43.13
2022-12-02T02:41:57.951Z,37.78
2022-12-02T02:44:29.206Z,38.35
2022-12-02T02:46:59.262Z,35.78
2022-12-02T02:49:30.581Z,36.75
2022-12-02T02:51:59.922Z,42.23
2022-12-02T02:54:31.272Z,35.13
2022-12-02T02:57:00.515Z,38.83
2022-12-02T02:59:29.931Z,43.40
2022-12-02T03:01:59.673Z,37.17
2022-12-02T03:04:29.018Z,42.40
2022-12-02T03:06:58.410Z,36.70
2022-12-02T03:09:31.008Z,35.42
2022-12-02T03:12:00.736Z,30.27
2022-12-02T03:14:31.429Z,35.90
2022-12-02T03:17:03.251Z,24.93
2022-12-02T03:19:34.385Z,31.08
2022-12-02T03:22:04.861Z,28.40
2022-12-02T03:24:35.950Z,33.92
2022-12-02T03:27:06.432Z,28.50
2022-12-02T03:29:36.824Z,28.03
2022-12-02T03:32:07.111Z,29.65
2022-12-02T03:34:36.430Z,35.20
2022-12-02T03:37:05.819Z,34.88
2022-12-02T03:39:36.675Z,32.63
2022-12-02T03:42:06.441Z,40.07
2022-12-02T03:44:35.850Z,42.47
2022-12-02T03:47:05.946Z,41.60
2022-12-02T03:49:36.441Z,37.92
2022-12-02T03:52:06.311Z,38.97
2022-12-02T03:54:38.235Z,35.47
2022-12-02T03:57:08.567Z,39.00
2022-12-02T03:59:37.855Z,27.38
2022-12-02T04:02:07.239Z,34.35
2022-12-02T04:04:36.530Z,33.30
2022-12-02T04:07:05.811Z,36.00
2022-12-02T04:09:36.460Z,36.22
2022-12-02T04:12:06.029Z,31.05
2022-12-02T04:14:35.341Z,25.48
2022-12-02T04:17:08.122Z,29.90
2022-12-02T04:19:37.937Z,28.73
2022-12-02T04:22:07.164Z,28.25
2022-12-02T04:24:37.890Z,23.67
2022-12-02T04:27:07.147Z,27.83
2022-12-02T04:29:36.520Z,22.33
2022-12-02T04:32:06.208Z,22.77
2022-12-02T04:34:35.641Z,22.60
2022-12-02T04:37:05.002Z,20.77
2022-12-02T04:39:34.379Z,24.10
2022-12-02T04:42:05.211Z,19.05
2022-12-02T04:44:34.418Z,21.80
2022-12-02T04:47:03.689Z,20.67
2022-12-02T04:49:33.040Z,26.17
2022-12-02T04:52:02.352Z,21.13
2022-12-02T04:54:31.652Z,20.90
2022-12-02T04:57:00.864Z,20.80
2022-12-02T04:59:31.631Z,19.35
2022-12-02T05:02:00.858Z,19.08
2022-12-02T05:04:32.851Z,24.10
2022-12-02T05:07:04.578Z,20.60
2022-12-02T05:09:34.220Z,18.63
2022-12-02T05:12:03.634Z,21.38
2022-12-02T05:14:34.357Z,24.23
2022-12-02T05:17:03.648Z,20.90
2022-12-02T05:19:33.141Z,22.90
2022-12-02T05:22:02.589Z,24.33
2022-12-02T05:24:31.842Z,24.85
2022-12-02T05:27:01.102Z,25.27
2022-12-02T05:29:30.340Z,23.92
2022-12-02T05:32:00.970Z,24.90
2022-12-02T05:34:30.270Z,21.57
2022-12-02T05:36:59.676Z,26.50
2022-12-02T05:39:28.898Z,23.35
2022-12-02T05:42:02.873Z,26.98
2022-12-02T05:44:38.019Z,24.60
2022-12-02T05:47:13.471Z,26.87
2022-12-02T05:49:44.081Z,24.52
2022-12-02T05:52:23.060Z,26.33
2022-12-02T05:54:54.835Z,27.38
2022-12-02T05:57:28.008Z,28.23
2022-12-02T06:00:12.403Z,32.87
2022-12-02T06:02:46.606Z,30.67
2022-12-02T06:05:21.357Z,32.58
2022-12-02T06:07:56.690Z,28.77
2022-12-02T06:10:29.026Z,28.42
2022-12-02T06:13:01.068Z,31.27
2022-12-02T06:15:36.672Z,34.75
2022-12-02T06:18:14.204Z,33.08
2022-12-02T06:20:44.134Z,35.65
2022-12-02T06:23:17.868Z,36.85
2022-12-02T06:25:48.827Z,36.77
2022-12-02T06:28:25.312Z,39.30
2022-12-02T06:30:58.153Z,37.83
2022-12-02T06:33:32.220Z,41.13
2022-12-02T06:36:05.862Z,34.70
2022-12-02T06:38:43.813Z,37.03
2022-12-02T06:41:17.510Z,36.50
2022-12-02T06:44:07.121Z,37.53
2022-12-02T06:46:37.704Z,30.60
2022-12-02T06:49:20.261Z,37.15
2022-12-02T06:51:55.611Z,36.63
2022-12-02T06:54:28.080Z,36.67
2022-12-02T06:57:00.289Z,35.38
2022-12-02T06:59:30.078Z,40.97
2022-12-02T07:02:08.252Z,41.33
2022-12-02T07:04:46.519Z,41.03
2022-12-02T07:07:20.630Z,42.15
2022-12-02T07:09:54.999Z,39.70
2022-12-02T07:12:27.423Z,39.78
2022-12-02T07:14:58.261Z,40.28
2022-12-02T07:17:31.237Z,38.53
2022-12-02T07:20:04.172Z,41.20
2022-12-02T07:22:37.412Z,44.03
2022-12-02T07:25:37.459Z,38.17
2022-12-02T07:28:26.289Z,44.35
2022-12-02T07:31:02.762Z,44.50
2022-12-02T07:33:32.738Z,44.50
2022-12-02T07:36:03.452Z,39.72
2022-12-02T07:39:04.002Z,43.55
2022-12-02T07:41:21.964Z,42.40
2022-12-02T07:43:51.219Z,41.73
2022-12-02T07:46:21.190Z,42.63
2022-12-02T07:48:54.317Z,43.00
2022-12-02T07:51:27.780Z,40.47
2022-12-02T07:53:57.779Z,40.25
2022-12-02T07:56:27.107Z,40.40
2022-12-02T07:59:11.783Z,40.05
2022-12-02T08:01:42.596Z,42.03
2022-12-02T08:04:12.185Z,46.55
2022-12-02T08:06:42.854Z,42.00
2022-12-02T08:09:12.253Z,45.53
2022-12-02T08:11:41.540Z,46.78
2022-12-02T08:14:10.970Z,43.00
2022-12-02T08:16:40.405Z,47.35
2022-12-02T08:19:09.800Z,46.70
2022-12-02T08:21:40.740Z,44.17
2022-12-02T08:24:11.527Z,49.10
2022-12-02T08:26:40.816Z,46.63
2022-12-02T08:29:10.471Z,43.00
2022-12-02T08:31:40.075Z,45.65
2022-12-02T08:34:09.509Z,48.87
2022-12-02T08:36:38.937Z,50.90
2022-12-02T08:39:08.249Z,46.75
2022-12-02T08:41:39.705Z,47.50
2022-12-02T08:44:08.945Z,48.33
2022-12-02T08:46:38.441Z,43.83
2022-12-02T08:49:07.795Z,47.25
2022-12-02T08:51:37.542Z,44.58
2022-12-02T08:54:07.019Z,44.85
2022-12-02T08:56:36.388Z,45.10
2022-12-02T08:59:07.247Z,39.23
2022-12-02T09:01:36.707Z,41.00
2022-12-02T09:04:07.049Z,46.33
2022-12-02T09:06:36.689Z,48.03
2022-12-02T09:09:07.025Z,43.55
2022-12-02T09:11:36.471Z,38.23
2022-12-02T09:14:07.241Z,46.58
2022-12-02T09:16:36.652Z,44.42
2022-12-02T09:19:06.017Z,43.28
2022-12-02T09:21:35.343Z,44.22
2022-12-02T09:24:05.213Z,42.23
2022-12-02T09:26:35.157Z,43.80
2022-12-02T09:29:04.495Z,40.58
2022-12-02T09:31:35.263Z,45.15
2022-12-02T09:34:04.850Z,44.88
2022-12-02T09:36:34.317Z,44.33
2022-12-02T09:39:03.738Z,44.08
2022-12-02T09:41:33.071Z,41.42
2022-12-02T09:44:02.411Z,40.88
2022-12-02T09:46:32.239Z,42.65
2022-12-02T09:49:03.213Z,36.70
2022-12-02T09:51:34.109Z,37.38
2022-12-02T09:54:05.079Z,40.83
2022-12-02T09:56:34.430Z,36.85
2022-12-02T09:59:11.931Z,39.92
2022-12-02T10:01:43.947Z,41.53
2022-12-02T10:04:18.294Z,37.40
2022-12-02T10:06:48.309Z,41.22
2022-12-02T10:09:23.491Z,29.17
2022-12-02T10:11:52.862Z,33.55
2022-12-02T10:14:22.391Z,29.93
2022-12-02T10:16:54.276Z,29.83
2022-12-02T10:19:25.086Z,33.10
2022-12-02T10:21:55.726Z,33.17
2022-12-02T10:24:38.330Z,31.73
2022-12-02T10:27:07.852Z,30.73
2022-12-02T10:29:37.146Z,35.08
2022-12-02T10:32:09.350Z,37.45
2022-12-02T10:34:40.644Z,35.65
2022-12-02T10:37:25.830Z,31.15
2022-12-02T10:40:09.652Z,31.30
2022-12-02T10:42:39.001Z,28.55
2022-12-02T10:45:17.895Z,31.83
2022-12-02T10:47:47.565Z,29.60
2022-12-02T10:50:21.242Z,31.40
2022-12-02T10:52:52.482Z,30.37
2022-12-02T10:55:22.500Z,27.80
2022-12-02T10:57:52.693Z,24.02
2022-12-02T11:00:24.180Z,30.35
2022-12-02T11:02:56.228Z,25.77
2022-12-02T11:05:28.685Z,22.10
2022-12-02T11:08:00.504Z,24.90
2022-12-02T11:10:36.061Z,29.50
2022-12-02T11:13:33.850Z,26.67
2022-12-02T11:16:36.480Z,27.13
2022-12-02T11:19:24.100Z,22.67
2022-12-02T11:21:59.109Z,27.20
2022-12-02T11:24:37.500Z,24.90
2022-12-02T11:27:16.792Z,26.48
2022-12-02T11:30:29.286Z,26.80
2022-12-02T11:32:58.622Z,28.93
2022-12-02T11:36:14.029Z,28.85
2022-12-02T11:38:48.495Z,28.85
2022-12-02T11:41:18.889Z,31.63
2022-12-02T11:44:23.108Z,26.23
2022-12-02T11:46:54.751Z,28.37
2022-12-02T11:49:36.601Z,25.75
2022-12-02T11:52:23.881Z,29.95
2022-12-02T11:55:16.410Z,19.95
2022-12-02T11:57:49.506Z,23.55
2022-12-02T12:00:35.755Z,25.47
2022-12-02T12:03:13.592Z,24.98
2022-12-02T12:05:45.187Z,30.42
2022-12-02T12:08:26.703Z,30.33
2022-12-02T12:11:19.721Z,29.55
2022-12-02T12:14:06.928Z,28.03
2022-12-02T12:16:39.372Z,34.42
2022-12-02T12:19:29.368Z,31.40
2022-12-02T12:22:00.548Z,33.25
2022-12-02T12:24:34.703Z,28.27
2022-12-02T12:27:34.933Z,26.60
2022-12-02T12:30:05.769Z,30.10
2022-12-02T12:32:35.063Z,31.23
2022-12-02T12:35:04.528Z,28.83
2022-12-02T12:37:33.952Z,31.67
2022-12-02T12:40:03.391Z,30.00
2022-12-02T12:42:34.211Z,28.70
2022-12-02T12:45:03.542Z,29.60
2022-12-02T12:47:32.932Z,31.90
2022-12-02T12:50:02.441Z,33.33
2022-12-02T12:52:31.811Z,30.53
2022-12-02T12:55:01.242Z,30.90
2022-12-02T12:57:30.881Z,37.40
2022-12-02T13:00:01.675Z,30.73
2022-12-02T13:02:31.087Z,30.02
2022-12-02T13:05:01.022Z,31.13
2022-12-02T13:07:30.524Z,29.67
2022-12-02T13:10:00.491Z,32.53
2022-12-02T13:12:31.468Z,35.17
2022-12-02T13:15:02.279Z,32.53
2022-12-02T13:17:31.651Z,33.37
2022-12-02T13:20:01.022Z,35.17
2022-12-02T13:22:30.443Z,33.35
2022-12-02T13:25:00.045Z,32.85
2022-12-02T13:27:29.391Z,30.30
2022-12-02T13:30:01.525Z,32.93
2022-12-02T13:32:30.838Z,33.45
2022-12-02T13:35:00.290Z,36.25
2022-12-02T13:37:29.650Z,35.33
2022-12-02T13:40:00.773Z,27.20
2022-12-02T13:42:30.568Z,33.00
2022-12-02T13:45:01.378Z,35.13
2022-12-02T13:47:30.853Z,35.75
2022-12-02T13:50:00.355Z,34.88
2022-12-02T13:52:29.830Z,33.05
2022-12-02T13:54:59.223Z,32.60
2022-12-02T13:57:28.770Z,34.03
2022-12-02T13:59:58.147Z,34.63
2022-12-02T14:02:28.939Z,31.50
2022-12-02T14:05:04.024Z,31.15
2022-12-02T14:07:37.034Z,24.63
2022-12-02T14:10:07.650Z,31.70
2022-12-02T14:12:37.170Z,30.95
2022-12-02T14:15:07.391Z,22.73
2022-12-02T14:17:38.182Z,29.30
2022-12-02T14:20:08.874Z,29.90
2022-12-02T14:22:38.209Z,27.05
2022-12-02T14:25:07.874Z,21.27
2022-12-02T14:27:37.465Z,27.95
2022-12-02T14:30:08.132Z,25.02
2022-12-02T14:32:39.093Z,24.40
2022-12-02T14:35:09.531Z,21.52
2022-12-02T14:37:38.912Z,25.23
2022-12-02T14:40:09.700Z,21.88
2022-12-02T14:42:39.162Z,20.55
2022-12-02T14:45:09.188Z,20.97
2022-12-02T14:47:39.968Z,22.92
2022-12-02T14:50:09.957Z,24.45
2022-12-02T14:52:39.391Z,24.30
2022-12-02T14:55:09.299Z,23.13
2022-12-02T14:57:38.813Z,24.57
2022-12-02T15:00:09.493Z,20.23
2022-12-02T15:02:40.744Z,23.13
2022-12-02T15:05:14.554Z,24.50
2022-12-02T15:07:44.498Z,22.35
2022-12-02T15:10:15.164Z,19.37
2022-12-02T15:12:44.702Z,21.23
2022-12-02T15:15:37.326Z,19.17
2022-12-02T15:18:05.102Z,22.80
2022-12-02T15:20:34.483Z,21.95
2022-12-02T15:23:03.849Z,20.33
2022-12-02T15:25:33.221Z,21.65
2022-12-02T15:28:02.530Z,23.20
2022-12-02T15:30:32.123Z,24.02
2022-12-02T15:33:01.420Z,22.95
2022-12-02T15:35:33.143Z,22.87
2022-12-02T15:38:02.588Z,19.83
2022-12-02T15:40:31.978Z,21.42
2022-12-02T15:43:01.265Z,22.98
2022-12-02T15:45:30.884Z,21.27
2022-12-02T15:48:00.368Z,22.90
2022-12-02T15:50:29.697Z,21.48
2022-12-02T15:53:00.491Z,22.20
2022-12-02T15:55:29.830Z,22.33
2022-12-02T15:57:59.188Z,22.58
2022-12-02T16:00:28.702Z,18.70
2022-12-02T16:02:58.089Z,21.17
2022-12-02T16:05:27.536Z,19.55
2022-12-02T16:07:56.930Z,19.55
2022-12-02T16:10:28.001Z,22.77
2022-12-02T16:12:57.415Z,17.80
2022-12-02T16:15:26.939Z,20.55
2022-12-02T16:17:56.358Z,21.80
2022-12-02T16:20:25.904Z,21.98
2022-12-02T16:22:55.294Z,21.60
2022-12-02T16:25:25.020Z,22.33
2022-12-02T16:27:55.828Z,23.02
2022-12-02T16:30:25.163Z,22.40
2022-12-02T16:32:54.502Z,19.98
2022-12-02T16:35:23.799Z,22.00
2022-12-02T16:37:53.145Z,22.70
2022-12-02T16:40:28.021Z,23.50
2022-12-02T16:42:58.863Z,17.63
2022-12-02T16:45:28.514Z,17.20
2022-12-02T16:47:58.003Z,20.25
2022-12-02T16:50:27.421Z,19.03
2022-12-02T16:52:57.049Z,19.83
2022-12-02T16:55:26.516Z,20.50
2022-12-02T16:57:56.719Z,23.92
2022-12-02T17:00:27.490Z,22.08
2022-12-02T17:02:56.979Z,19.67
2022-12-02T17:05:26.585Z,21.85
2022-12-02T17:07:56.028Z,18.90
2022-12-02T17:10:25.560Z,21.85
2022-12-02T17:12:55.027Z,19.35
2022-12-02T17:15:24.420Z,18.87
2022-12-02T17:17:55.293Z,20.75
2022-12-02T17:20:24.857Z,21.05
2022-12-02T17:22:54.241Z,21.77
2022-12-02T17:25:24.506Z,21.50
2022-12-02T17:27:53.937Z,20.50
2022-12-02T17:30:24.630Z,17.00
2022-12-02T17:32:57.149Z,19.92
2022-12-02T17:35:26.760Z,20.65
2022-12-02T17:37:56.123Z,17.50
2022-12-02T17:40:25.428Z,19.00
2022-12-02T17:42:54.722Z,23.15
2022-12-02T17:45:24.450Z,20.13
2022-12-02T17:47:55.253Z,19.52
2022-12-02T17:50:24.552Z,17.65
2022-12-02T17:52:53.914Z,19.80
2022-12-02T17:55:23.368Z,20.25
2022-12-02T17:57:52.767Z,20.50
2022-12-02T18:00:23.343Z,18.15
2022-12-02T18:02:52.717Z,21.77
2022-12-02T18:05:23.662Z,21.97
2022-12-02T18:07:53.220Z,17.83
2022-12-02T18:10:22.629Z,21.17
2022-12-02T18:12:52.009Z,18.77
2022-12-02T18:15:21.322Z,18.90
2022-12-02T18:17:50.671Z,19.57
2022-12-02T18:20:20.216Z,15.95
2022-12-02T18:22:51.002Z,21.20
2022-12-02T18:25:20.352Z,20.38
2022-12-02T18:27:49.652Z,20.00
2022-12-02T18:30:19.243Z,14.37
2022-12-02T18:32:48.480Z,17.48
2022-12-02T18:35:18.141Z,17.70
2022-12-02T18:37:47.711Z,19.85
2022-12-02T18:40:20.632Z,17.10
2022-12-02T18:42:50.032Z,18.30
2022-12-02T18:45:19.467Z,15.82
2022-12-02T18:47:48.769Z,17.65
2022-12-02T18:50:18.281Z,18.27
2022-12-02T18:52:48.474Z,18.45
2022-12-02T18:55:19.452Z,17.23
2022-12-02T18:57:48.869Z,20.92
2022-12-02T19:00:19.152Z,18.08
2022-12-02T19:02:48.607Z,16.70
2022-12-02T19:05:18.602Z,17.25
2022-12-02T19:07:47.966Z,18.37
2022-12-02T19:10:19.164Z,17.67
2022-12-02T19:12:48.858Z,17.58
2022-12-02T19:15:18.342Z,18.42
2022-12-02T19:17:48.029Z,21.40
2022-12-02T19:20:17.760Z,19.17
2022-12-02T19:22:47.071Z,16.83
2022-12-02T19:25:16.461Z,18.63
2022-12-02T19:27:57.310Z,20.08
2022-12-02T19:30:27.498Z,21.63
2022-12-02T19:32:56.950Z,19.70
2022-12-02T19:35:26.231Z,20.60
2022-12-02T19:38:00.787Z,17.13
2022-12-02T19:40:39.447Z,17.80
2022-12-02T19:43:15.386Z,18.70
2022-12-02T19:45:45.182Z,18.93
2022-12-02T19:48:14.571Z,18.70
2022-12-02T19:50:43.933Z,19.30
2022-12-02T19:53:13.392Z,17.55
2022-12-02T19:55:42.681Z,19.20
2022-12-02T19:58:11.971Z,20.70
2022-12-02T20:00:42.821Z,18.73
2022-12-02T20:03:12.279Z,21.17
2022-12-02T20:05:41.771Z,17.75
2022-12-02T20:08:11.126Z,19.55
2022-12-02T20:10:41.273Z,16.17
2022-12-02T20:13:10.530Z,20.50
2022-12-02T20:15:40.161Z,19.67
2022-12-02T20:18:11.062Z,20.42
2022-12-02T20:20:40.368Z,16.50
2022-12-02T20:23:10.158Z,16.07
2022-12-02T20:25:39.666Z,18.58
2022-12-02T20:28:08.988Z,19.98
2022-12-02T20:30:39.108Z,17.65
2022-12-02T20:33:08.671Z,17.63
2022-12-02T20:35:39.393Z,21.17
2022-12-02T20:38:08.750Z,18.48
2022-12-02T20:40:38.107Z,20.10
2022-12-02T20:43:07.385Z,16.20
2022-12-02T20:45:36.952Z,18.92
2022-12-02T20:48:06.540Z,18.73
2022-12-02T20:50:35.969Z,18.10
2022-12-02T20:53:07.427Z,20.88
2022-12-02T20:55:37.692Z,18.52
2022-12-02T20:58:08.490Z,17.92
2022-12-02T21:00:37.966Z,16.67
2022-12-02T21:03:07.351Z,18.75
2022-12-02T21:05:36.646Z,22.67
2022-12-02T21:08:07.655Z,18.65
2022-12-02T21:10:37.030Z,20.30
2022-12-02T21:13:06.291Z,16.40
2022-12-02T21:15:36.088Z,21.38
2022-12-02T21:18:05.761Z,20.35
2022-12-02T21:20:35.975Z,19.05
2022-12-02T21:23:06.720Z,21.17
2022-12-02T21:25:36.031Z,16.67
2022-12-02T21:28:05.811Z,20.15
2022-12-02T21:30:37.396Z,19.42
2022-12-02T21:33:06.921Z,24.00
2022-12-02T21:35:37.250Z,19.52
2022-12-02T21:38:07.988Z,19.40
2022-12-02T21:40:37.260Z,22.50
2022-12-02T21:43:08.118Z,20.42
2022-12-02T21:45:39.998Z,18.80
2022-12-02T21:48:09.331Z,18.10
2022-12-02T21:50:38.734Z,20.90
2022-12-02T21:53:09.458Z,21.85
2022-12-02T21:55:38.787Z,17.25
2022-12-02T21:58:08.052Z,19.08
2022-12-02T22:00:37.448Z,21.42
2022-12-02T22:03:10.429Z,18.63
2022-12-02T22:05:42.980Z,17.58
2022-12-02T22:08:13.776Z,19.40
2022-12-02T22:10:43.239Z,21.73
2022-12-02T22:13:12.695Z,21.92
2022-12-02T22:15:41.990Z,18.93
2022-12-02T22:18:11.399Z,17.92
2022-12-02T22:20:40.878Z,22.05
2022-12-02T22:23:10.284Z,21.17
2022-12-02T22:25:41.153Z,21.65
2022-12-02T22:28:10.447Z,23.80
2022-12-02T22:30:39.811Z,22.45
2022-12-02T22:33:09.193Z,21.33
2022-12-02T22:35:38.512Z,20.45
2022-12-02T22:38:07.817Z,22.73
2022-12-02T22:40:37.288Z,20.63
2022-12-02T22:43:08.041Z,23.15
2022-12-02T22:45:37.431Z,17.67
2022-12-02T22:48:07.242Z,16.73
2022-12-02T22:50:36.520Z,18.13
2022-12-02T22:53:05.823Z,21.23
2022-12-02T22:55:36.195Z,19.55
2022-12-02T22:58:05.380Z,20.92
2022-12-02T23:00:36.043Z,21.63
2022-12-02T23:03:05.616Z,18.70
2022-12-02T23:05:34.920Z,21.33
2022-12-02T23:08:04.378Z,19.55
2022-12-02T23:10:36.034Z,19.88
2022-12-02T23:13:05.651Z,21.38
2022-12-02T23:15:38.567Z,23.35
2022-12-02T23:18:08.769Z,19.87
2022-12-02T23:20:38.114Z,18.20
2022-12-02T23:23:07.585Z,17.95
2022-12-02T23:25:36.928Z,20.60
2022-12-02T23:28:06.828Z,21.58
2022-12-02T23:30:37.872Z,23.57
2022-12-02T23:33:07.785Z,21.95
2022-12-02T23:35:36.994Z,21.42
2022-12-02T23:38:06.231Z,25.95
2022-12-02T23:40:35.518Z,24.85
2022-12-02T23:43:05.359Z,25.30
2022-12-02T23:45:34.609Z,27.88
2022-12-02T23:48:05.497Z,24.80
2022-12-02T23:50:34.911Z,23.23
2022-12-02T23:53:04.195Z,23.83
2022-12-02T23:55:33.542Z,26.07
2022-12-02T23:58:02.862Z,24.90
